createdAt,value
2022-09-05T00:02:48.826Z,53.60
2022-09-05T00:06:01.808Z,53.60
2022-09-05T00:08:42.110Z,53.20
2022-09-05T00:11:40.834Z,52.90
2022-09-05T00:14:15.041Z,52.60
2022-09-05T00:17:11.505Z,52.60
2022-09-05T00:24:18.417Z,52.70
2022-09-05T00:24:24.866Z,52.80
2022-09-05T00:25:58.136Z,53.00
2022-09-05T00:28:37.923Z,53.20
2022-09-05T00:31:54.175Z,53.30
2022-09-05T00:34:25.573Z,53.60
2022-09-05T00:37:04.552Z,53.60
2022-09-05T00:39:36.239Z,53.40
2022-09-05T00:42:11.071Z,53.50
2022-09-05T00:44:51.082Z,53.60
2022-09-05T00:47:33.514Z,53.90
2022-09-05T00:50:07.836Z,54.00
2022-09-05T00:52:43.080Z,54.00
2022-09-05T00:55:26.782Z,54.10
2022-09-05T00:58:12.255Z,54.20
2022-09-05T01:00:51.414Z,54.40
2022-09-05T01:03:37.768Z,54.50
2022-09-05T01:06:34.188Z,54.40
2022-09-05T01:09:28.430Z,54.50
2022-09-05T01:12:15.191Z,54.50
2022-09-05T01:15:11.601Z,54.50
2022-09-05T01:17:51.947Z,54.40
2022-09-05T01:20:51.943Z,54.40
2022-09-05T01:23:43.914Z,54.40
2022-09-05T01:27:01.057Z,54.40
2022-09-05T01:29:41.119Z,54.40
2022-09-05T01:32:28.336Z,54.30
2022-09-05T01:35:03.916Z,54.30
2022-09-05T01:37:39.552Z,54.40
2022-09-05T01:40:24.898Z,54.50
2022-09-05T01:43:06.556Z,54.80
2022-09-05T01:45:50.748Z,54.90
2022-09-05T01:48:30.820Z,54.90
2022-09-05T01:51:28.837Z,54.80
2022-09-05T01:54:19.855Z,54.80
2022-09-05T01:57:09.351Z,54.80
2022-09-05T01:59:47.255Z,54.80
2022-09-05T02:02:27.879Z,55.00
2022-09-05T02:05:20.681Z,55.30
2022-09-05T02:08:35.215Z,55.40
2022-09-05T02:11:06.228Z,55.40
2022-09-05T02:13:57.293Z,55.30
2022-09-05T02:16:36.190Z,55.60
2022-09-05T02:19:16.890Z,55.80
2022-09-05T02:21:55.972Z,55.90
2022-09-05T02:24:28.584Z,55.90
2022-09-05T02:27:31.800Z,55.80
2022-09-05T02:30:13.794Z,56.00
2022-09-05T02:32:52.690Z,55.80
2022-09-05T02:35:31.323Z,56.00
2022-09-05T02:40:07.831Z,56.10
2022-09-05T02:45:06.536Z,56.30
2022-09-05T02:45:07.530Z,56.30
2022-09-05T02:46:54.185Z,56.10
2022-09-05T02:52:40.846Z,56.00
2022-09-05T02:57:42.129Z,55.90
2022-09-05T02:57:46.091Z,56.00
2022-09-05T02:58:19.946Z,55.40
2022-09-05T03:01:01.268Z,55.80
2022-09-05T03:03:36.688Z,55.90
2022-09-05T03:06:14.951Z,55.90
2022-09-05T03:09:17.074Z,56.10
2022-09-05T03:12:29.465Z,56.20
2022-09-05T03:15:41.881Z,56.30
2022-09-05T03:18:56.043Z,56.40
2022-09-05T03:22:00.514Z,56.70
2022-09-05T03:24:58.815Z,57.10
2022-09-05T03:28:06.167Z,57.40
2022-09-05T03:30:54.128Z,57.60
2022-09-05T03:33:38.358Z,57.10
2022-09-05T03:36:26.458Z,57.30
2022-09-05T03:39:28.843Z,57.60
2022-09-05T03:42:14.763Z,57.80
2022-09-05T03:44:55.386Z,57.70
2022-09-05T03:47:53.375Z,57.50
2022-09-05T03:57:11.362Z,57.50
2022-09-05T03:57:11.649Z,57.50
2022-09-05T03:57:42.667Z,57.70
2022-09-05T04:00:21.613Z,57.70
2022-09-05T04:08:06.642Z,57.80
2022-09-05T04:08:13.702Z,58.00
2022-09-05T04:09:04.190Z,57.80
2022-09-05T04:11:37.702Z,58.00
2022-09-05T04:14:10.795Z,58.00
2022-09-05T04:16:51.071Z,58.00
2022-09-05T04:19:27.880Z,58.10
2022-09-05T04:22:04.206Z,58.00
2022-09-05T04:24:43.278Z,58.00
2022-09-05T04:27:36.282Z,58.10
2022-09-05T04:30:38.007Z,58.10
2022-09-05T04:33:16.784Z,58.10
2022-09-05T04:35:57.796Z,57.90
2022-09-05T04:38:42.140Z,58.10
2022-09-05T04:41:13.234Z,58.40
2022-09-05T04:43:46.782Z,58.30
2022-09-05T04:46:25.781Z,58.40
2022-09-05T04:49:01.393Z,58.60
2022-09-05T04:52:01.253Z,58.30
2022-09-05T04:54:36.584Z,58.40
2022-09-05T04:57:16.926Z,58.10
2022-09-05T05:04:59.492Z,58.00
2022-09-05T05:06:12.239Z,58.00
2022-09-05T05:06:16.461Z,58.10
2022-09-05T05:08:41.583Z,58.00
2022-09-05T05:17:56.265Z,58.30
2022-09-05T05:18:14.523Z,58.50
2022-09-05T05:18:14.995Z,58.50
2022-09-05T05:20:40.784Z,58.50
2022-09-05T05:22:52.552Z,58.60
2022-09-05T05:25:20.806Z,58.60
2022-09-05T05:28:10.299Z,58.70
2022-09-05T05:30:51.315Z,58.90
2022-09-05T05:33:25.961Z,58.20
2022-09-05T05:35:58.139Z,58.00
2022-09-05T05:38:41.028Z,58.50
2022-09-05T05:41:19.562Z,58.80
2022-09-05T05:43:49.709Z,58.80
2022-09-05T05:46:30.168Z,58.80
2022-09-05T05:49:14.906Z,59.00
2022-09-05T05:52:02.124Z,59.10
2022-09-05T05:54:37.580Z,59.10
2022-09-05T05:57:37.384Z,59.00
2022-09-05T06:00:24.518Z,59.30
2022-09-05T06:03:29.444Z,59.40
2022-09-05T06:06:09.694Z,59.30
2022-09-05T06:14:46.633Z,59.40
2022-09-05T06:15:05.892Z,59.60
2022-09-05T06:15:48.157Z,59.50
2022-09-05T06:19:10.706Z,59.50
2022-09-05T06:22:09.154Z,59.60
2022-09-05T06:25:34.754Z,58.90
2022-09-05T06:28:18.853Z,59.30
2022-09-05T06:30:57.269Z,59.40
2022-09-05T06:33:58.004Z,59.30
2022-09-05T06:36:48.791Z,59.50
2022-09-05T06:39:26.928Z,59.80
2022-09-05T06:42:40.644Z,59.70
2022-09-05T06:45:41.626Z,59.80
2022-09-05T06:48:23.881Z,59.60
2022-09-05T06:51:46.286Z,59.40
2022-09-05T06:54:32.621Z,59.30
2022-09-05T06:57:30.715Z,59.10
2022-09-05T07:00:17.578Z,59.00
2022-09-05T07:03:07.886Z,58.90
2022-09-05T07:05:45.289Z,59.30
2022-09-05T07:08:36.732Z,58.40
2022-09-05T07:11:16.743Z,58.40
2022-09-05T07:13:59.304Z,58.20
2022-09-05T07:16:39.375Z,58.10
2022-09-05T07:19:27.032Z,57.90
2022-09-05T07:22:46.143Z,57.80
2022-09-05T07:25:18.115Z,57.70
2022-09-05T07:28:26.116Z,57.60
2022-09-05T07:30:51.576Z,57.60
2022-09-05T07:33:21.875Z,57.30
2022-09-05T07:35:51.959Z,57.10
2022-09-05T07:38:30.114Z,56.90
2022-09-05T07:41:21.202Z,56.80
2022-09-05T07:43:55.093Z,56.30
2022-09-05T07:46:27.819Z,56.10
2022-09-05T07:48:59.668Z,55.80
2022-09-05T07:56:51.386Z,55.40
2022-09-05T07:56:54.442Z,55.60
2022-09-05T07:57:30.815Z,55.00
2022-09-05T08:00:07.366Z,54.80
2022-09-05T08:02:54.956Z,54.40
2022-09-05T08:05:34.558Z,54.40
2022-09-05T08:08:08.816Z,54.00
2022-09-05T08:11:22.395Z,53.70
2022-09-05T08:14:02.361Z,53.40
2022-09-05T08:16:44.711Z,53.00
2022-09-05T08:19:37.982Z,53.00
2022-09-05T08:22:08.844Z,52.60
2022-09-05T08:24:40.667Z,53.10
2022-09-05T08:27:16.636Z,52.20
2022-09-05T08:29:51.310Z,52.10
2022-09-05T08:32:46.268Z,52.00
2022-09-05T08:35:23.344Z,51.90
2022-09-05T08:37:53.940Z,51.50
2022-09-05T08:40:29.992Z,51.40
2022-09-05T08:46:36.545Z,50.90
2022-09-05T08:46:47.739Z,50.70
2022-09-05T08:49:16.332Z,50.20
2022-09-05T08:51:57.072Z,49.90
2022-09-05T08:54:33.660Z,49.60
2022-09-05T08:57:09.495Z,49.30
2022-09-05T09:00:18.472Z,49.20
2022-09-05T09:03:04.982Z,48.90
2022-09-05T09:06:13.210Z,48.80
2022-09-05T09:09:05.775Z,48.50
2022-09-05T09:11:38.557Z,48.20
2022-09-05T09:14:36.751Z,47.90
2022-09-05T09:17:30.643Z,47.80
2022-09-05T09:20:23.205Z,47.50
2022-09-05T09:22:59.140Z,47.20
2022-09-05T09:25:33.871Z,46.90
2022-09-05T09:28:50.626Z,47.00
2022-09-05T09:31:38.364Z,46.40
2022-09-05T09:34:33.116Z,46.10
2022-09-05T09:37:46.601Z,45.70
2022-09-05T09:40:36.899Z,45.20
2022-09-05T09:43:09.587Z,45.20
2022-09-05T09:45:54.275Z,45.10
2022-09-05T09:48:58.739Z,44.90
2022-09-05T09:51:56.495Z,44.60
2022-09-05T09:54:58.151Z,44.20
2022-09-05T09:57:46.065Z,44.30
2022-09-05T10:00:21.450Z,46.00
2022-09-05T10:05:47.595Z,44.20
2022-09-05T10:10:44.733Z,43.60
2022-09-05T10:10:47.947Z,43.70
2022-09-05T10:12:52.080Z,43.30
2022-09-05T10:15:34.825Z,42.90
2022-09-05T10:18:24.308Z,42.70
2022-09-05T10:21:17.928Z,42.50
2022-09-05T10:24:36.424Z,42.30
2022-09-05T10:27:35.364Z,42.50
2022-09-05T10:30:16.955Z,41.70
2022-09-05T10:35:13.751Z,41.50
2022-09-05T10:36:21.939Z,41.20
2022-09-05T10:39:02.487Z,41.20
2022-09-05T10:41:43.630Z,41.00
2022-09-05T10:44:15.069Z,40.80
2022-09-05T10:46:53.155Z,41.40
2022-09-05T10:49:30.033Z,42.60
2022-09-05T10:52:04.065Z,40.80
2022-09-05T10:55:16.190Z,40.80
2022-09-05T10:57:57.960Z,40.20
2022-09-05T11:02:24.704Z,40.40
2022-09-05T11:03:50.299Z,40.30
2022-09-05T11:06:24.687Z,40.10
2022-09-05T11:09:00.945Z,40.30
2022-09-05T11:11:34.530Z,39.70
2022-09-05T11:14:10.827Z,40.10
2022-09-05T11:17:00.180Z,39.80
2022-09-05T11:19:38.906Z,39.80
2022-09-05T11:22:22.756Z,39.20
2022-09-05T11:24:56.204Z,39.60
2022-09-05T11:27:31.701Z,39.60
2022-09-05T11:30:05.387Z,39.70
2022-09-05T11:38:45.575Z,39.70
2022-09-05T11:40:02.603Z,39.00
2022-09-05T11:40:10.359Z,38.90
2022-09-05T11:42:47.433Z,38.30
2022-09-05T11:45:52.971Z,38.30
2022-09-05T11:48:37.144Z,38.50
2022-09-05T11:51:35.112Z,38.40
2022-09-05T11:54:36.428Z,38.60
2022-09-05T11:57:34.122Z,37.80
2022-09-05T12:00:32.974Z,37.50
2022-09-05T12:03:59.512Z,36.70
2022-09-05T12:07:25.232Z,36.90
2022-09-05T12:10:47.151Z,37.20
2022-09-05T12:13:26.449Z,36.60
2022-09-05T12:16:07.318Z,36.20
2022-09-05T12:18:44.580Z,36.50
2022-09-05T12:21:27.430Z,36.20
2022-09-05T12:25:16.706Z,36.20
2022-09-05T12:27:43.885Z,36.20
2022-09-05T12:29:59.823Z,35.90
2022-09-05T12:34:45.005Z,36.00
2022-09-05T12:36:11.792Z,35.90
2022-09-05T12:40:54.275Z,35.90
2022-09-05T12:42:10.154Z,35.30
2022-09-05T12:44:51.533Z,35.70
2022-09-05T12:47:23.128Z,36.10
2022-09-05T12:50:03.053Z,36.10
2022-09-05T12:52:44.479Z,35.40
2022-09-05T12:55:24.786Z,35.30
2022-09-05T13:02:59.294Z,35.60
2022-09-05T13:03:08.949Z,35.70
2022-09-05T13:04:16.132Z,36.00
2022-09-05T13:06:40.882Z,35.80
2022-09-05T13:09:16.637Z,35.80
2022-09-05T13:14:50.555Z,35.50
2022-09-05T13:15:18.329Z,35.30
2022-09-05T13:17:51.370Z,35.30
2022-09-05T13:20:25.828Z,35.40
2022-09-05T13:22:54.873Z,34.90
2022-09-05T13:25:27.109Z,35.00
2022-09-05T13:28:02.058Z,34.10
2022-09-05T13:34:23.299Z,34.00
2022-09-05T13:37:59.036Z,34.50
2022-09-05T13:38:02.195Z,34.20
2022-09-05T13:39:15.280Z,34.50
2022-09-05T13:41:48.756Z,34.60
2022-09-05T13:44:26.431Z,34.40
2022-09-05T13:47:02.077Z,34.30
2022-09-05T13:49:43.376Z,34.20
2022-09-05T13:52:35.693Z,34.30
2022-09-05T13:55:22.691Z,34.40
2022-09-05T13:57:56.614Z,34.20
2022-09-05T14:01:19.622Z,34.10
2022-09-05T14:07:52.950Z,34.00
2022-09-05T14:11:03.292Z,34.20
2022-09-05T14:13:41.786Z,34.50
2022-09-05T14:16:17.928Z,33.90
2022-09-05T14:19:02.952Z,34.00
2022-09-05T14:21:37.553Z,34.10
2022-09-05T14:24:13.806Z,34.10
2022-09-05T14:26:47.122Z,34.10
2022-09-05T14:29:20.304Z,34.10
2022-09-05T14:37:36.803Z,33.40
2022-09-05T14:37:53.651Z,33.70
2022-09-05T14:38:15.686Z,33.70
2022-09-05T14:41:28.281Z,33.70
2022-09-05T14:44:23.335Z,33.50
2022-09-05T14:47:32.312Z,33.00
2022-09-05T14:50:30.101Z,32.80
2022-09-05T14:57:18.933Z,32.50
2022-09-05T15:02:54.384Z,32.30
2022-09-05T15:02:54.724Z,32.50
2022-09-05T15:05:21.305Z,32.60
2022-09-05T15:07:51.198Z,32.50
2022-09-05T15:12:16.500Z,32.10
2022-09-05T15:13:26.073Z,32.20
2022-09-05T15:16:02.992Z,32.50
2022-09-05T15:18:33.736Z,32.40
2022-09-05T15:21:33.217Z,32.30
2022-09-05T15:24:14.807Z,32.20
2022-09-05T15:26:52.788Z,32.00
2022-09-05T15:29:25.818Z,32.30
2022-09-05T15:32:10.153Z,32.20
2022-09-05T15:34:39.253Z,32.50
2022-09-05T15:37:24.100Z,32.50
2022-09-05T15:40:03.015Z,32.40
2022-09-05T15:42:34.235Z,32.60
2022-09-05T15:45:10.560Z,32.50
2022-09-05T15:47:45.282Z,32.40
2022-09-05T15:50:22.134Z,32.80
2022-09-05T15:52:55.676Z,32.20
2022-09-05T15:55:26.487Z,32.50
2022-09-05T15:57:58.139Z,32.80
2022-09-05T16:00:42.395Z,32.90
2022-09-05T16:05:46.352Z,33.50
2022-09-05T16:10:38.139Z,33.00
2022-09-05T16:10:39.840Z,33.00
2022-09-05T16:15:55.218Z,32.60
2022-09-05T16:23:15.774Z,32.10
2022-09-05T16:23:33.822Z,32.20
2022-09-05T16:23:40.394Z,32.10
2022-09-05T16:26:14.163Z,32.20
2022-09-05T16:28:50.490Z,32.00
2022-09-05T16:31:23.098Z,32.00
2022-09-05T16:33:53.306Z,31.90
2022-09-05T16:36:27.157Z,31.60
2022-09-05T16:38:59.787Z,31.70
2022-09-05T16:41:38.372Z,31.60
2022-09-05T16:44:23.486Z,31.80
2022-09-05T16:47:08.748Z,31.90
2022-09-05T16:49:43.704Z,31.90
2022-09-05T16:52:17.802Z,32.00
2022-09-05T16:54:50.641Z,32.10
2022-09-05T16:57:23.848Z,32.30
2022-09-05T16:59:52.441Z,32.20
2022-09-05T17:02:28.851Z,32.40
2022-09-05T17:05:11.325Z,32.40
2022-09-05T17:08:02.355Z,32.60
2022-09-05T17:10:35.065Z,32.70
2022-09-05T17:13:04.771Z,32.80
2022-09-05T17:15:36.458Z,32.80
2022-09-05T17:18:20.412Z,32.80
2022-09-05T17:20:55.512Z,32.90
2022-09-05T17:29:23.872Z,33.00
2022-09-05T17:29:27.403Z,33.10
2022-09-05T17:31:20.849Z,33.10
2022-09-05T17:32:52.057Z,33.30
2022-09-05T17:38:48.426Z,33.40
2022-09-05T17:41:48.432Z,33.60
2022-09-05T17:44:21.779Z,33.70
2022-09-05T17:47:07.387Z,33.70
2022-09-05T17:49:45.242Z,33.90
2022-09-05T17:52:24.164Z,33.80
2022-09-05T17:54:56.050Z,33.80
2022-09-05T17:57:42.207Z,34.00
2022-09-05T18:00:44.518Z,34.10
2022-09-05T18:03:12.987Z,34.30
2022-09-05T18:06:03.918Z,34.40
2022-09-05T18:08:52.997Z,34.60
2022-09-05T18:12:03.526Z,34.70
2022-09-05T18:14:48.771Z,34.80
2022-09-05T18:17:54.658Z,34.90
2022-09-05T18:20:28.325Z,35.20
2022-09-05T18:26:21.209Z,35.40
2022-09-05T18:29:05.909Z,35.60
2022-09-05T18:32:02.992Z,35.80
2022-09-05T18:35:08.713Z,35.90
2022-09-05T18:38:51.379Z,35.90
2022-09-05T18:41:19.375Z,36.00
2022-09-05T18:44:13.000Z,36.20
2022-09-05T18:46:47.700Z,36.40
2022-09-05T18:50:04.237Z,36.50
2022-09-05T18:52:17.075Z,36.60
2022-09-05T18:56:09.707Z,36.70
2022-09-05T18:57:49.689Z,36.80
2022-09-05T19:00:29.827Z,36.90
2022-09-05T19:03:17.980Z,37.10
2022-09-05T19:05:50.831Z,37.10
2022-09-05T19:08:28.831Z,37.20
2022-09-05T19:11:01.734Z,37.30
2022-09-05T19:13:50.347Z,37.40
2022-09-05T19:16:43.494Z,37.40
2022-09-05T19:19:24.275Z,38.10
2022-09-05T19:22:13.271Z,37.70
2022-09-05T19:24:46.053Z,37.70
2022-09-05T19:28:47.183Z,37.90
2022-09-05T19:36:49.646Z,38.00
2022-09-05T19:36:56.709Z,37.90
2022-09-05T19:37:09.251Z,38.10
2022-09-05T19:41:16.345Z,38.30
2022-09-05T19:47:30.412Z,38.30
2022-09-05T19:47:47.154Z,38.50
2022-09-05T19:47:56.266Z,38.60
2022-09-05T19:50:20.939Z,38.60
2022-09-05T19:52:53.359Z,38.70
2022-09-05T19:55:24.038Z,38.80
2022-09-05T19:58:05.226Z,39.00
2022-09-05T20:00:47.448Z,39.00
2022-09-05T20:03:28.897Z,39.20
2022-09-05T20:06:29.402Z,39.30
2022-09-05T20:09:14.243Z,39.50
2022-09-05T20:11:47.732Z,39.60
2022-09-05T20:14:24.704Z,39.70
2022-09-05T20:16:55.921Z,39.80
2022-09-05T20:19:29.112Z,39.70
2022-09-05T20:21:59.757Z,39.70
2022-09-05T20:24:44.267Z,39.70
2022-09-05T20:27:16.746Z,39.80
2022-09-05T20:29:54.884Z,39.90
2022-09-05T20:32:39.555Z,40.00
2022-09-05T20:40:06.786Z,40.00
2022-09-05T20:43:10.851Z,40.10
2022-09-05T20:43:31.959Z,40.10
2022-09-05T20:43:53.696Z,40.30
2022-09-05T20:48:31.833Z,40.20
2022-09-05T20:54:14.298Z,40.30
2022-09-05T20:54:16.970Z,40.30
2022-09-05T20:55:38.293Z,40.40
2022-09-05T20:58:13.677Z,40.40
2022-09-05T21:01:20.149Z,40.60
2022-09-05T21:03:38.069Z,40.70
2022-09-05T21:06:22.066Z,40.80
2022-09-05T21:08:51.370Z,40.90
2022-09-05T21:11:35.548Z,40.90
2022-09-05T21:14:06.234Z,41.10
2022-09-05T21:16:38.734Z,41.10
2022-09-05T21:19:07.734Z,41.60
2022-09-05T21:21:36.873Z,41.00
2022-09-05T21:24:17.318Z,41.10
2022-09-05T21:26:48.609Z,41.20
2022-09-05T21:29:32.767Z,41.30
2022-09-05T21:32:04.578Z,41.40
2022-09-05T21:34:44.880Z,41.50
2022-09-05T21:37:15.456Z,41.60
2022-09-05T21:39:58.330Z,41.50
2022-09-05T21:45:59.982Z,41.60
2022-09-05T21:47:48.739Z,41.70
2022-09-05T21:48:08.291Z,41.80
2022-09-05T21:50:40.608Z,41.80
2022-09-05T21:54:13.120Z,41.90
2022-09-05T21:59:18.932Z,41.90
2022-09-05T21:59:20.625Z,41.90
2022-09-05T22:01:52.215Z,42.00
2022-09-05T22:04:22.365Z,42.10
2022-09-05T22:06:53.110Z,42.10
2022-09-05T22:09:22.926Z,42.20
2022-09-05T22:11:51.265Z,42.20
2022-09-05T22:14:20.591Z,42.30
2022-09-05T22:16:51.684Z,42.30
2022-09-05T22:19:37.491Z,42.30
2022-09-05T22:22:16.400Z,42.30
2022-09-05T22:24:51.683Z,42.40
2022-09-05T22:27:21.780Z,42.40
2022-09-05T22:29:51.180Z,42.50
2022-09-05T22:32:32.322Z,42.70
2022-09-05T22:35:27.214Z,42.70
2022-09-05T22:37:58.721Z,42.80
2022-09-05T22:40:28.655Z,42.70
2022-09-05T22:42:57.930Z,42.90
2022-09-05T22:45:26.350Z,42.90
2022-09-05T22:47:55.990Z,42.80
2022-09-05T22:50:24.958Z,42.90
2022-09-05T22:52:53.160Z,42.80
2022-09-05T22:55:21.499Z,43.00
2022-09-05T22:57:49.640Z,43.00
2022-09-05T23:00:18.179Z,43.80
2022-09-05T23:02:51.629Z,43.30
2022-09-05T23:05:22.214Z,43.40
2022-09-05T23:07:50.386Z,43.60
2022-09-05T23:10:19.210Z,43.70
2022-09-05T23:12:47.403Z,43.80
2022-09-05T23:15:15.677Z,43.80
2022-09-05T23:17:43.810Z,44.40
2022-09-05T23:20:12.119Z,43.90
2022-09-05T23:22:43.109Z,43.90
2022-09-05T23:25:11.843Z,44.00
2022-09-05T23:27:40.036Z,44.00
2022-09-05T23:30:09.906Z,44.10
2022-09-05T23:32:38.507Z,44.30
2022-09-05T23:35:07.322Z,44.30
2022-09-05T23:37:35.432Z,44.40
2022-09-05T23:40:05.968Z,44.30
2022-09-05T23:42:34.538Z,44.30
2022-09-05T23:45:02.723Z,44.30
2022-09-05T23:47:30.856Z,44.40
2022-09-05T23:49:59.036Z,44.60
2022-09-05T23:52:27.136Z,44.70
2022-09-05T23:54:55.207Z,44.80
2022-09-05T23:57:25.994Z,45.00
2022-09-05T23:59:54.135Z,45.10
